Flight Track Log - Related Links

Times and Time Zones

All times are in EDT time to prevent confusion due to time zone crossing. See the CSN3242 flight status page for this flight to view local times or setup timezone preferences in your user account.

Time Position Orientation Groundspeed Altitude Reporting Facility
EDT Latitude Longitude Course Direction KTS MPH feet Rate Location/Type
Fri 11:36:00 AM 25.0880 109.9439 214° Southwest  Level Estimated
Fri 11:37:00 AM 24.9578 109.8488 214° Southwest  Level Estimated
Fri 11:38:00 AM 24.8275 109.7539 213° Southwest  Level Estimated
Fri 11:39:00 AM 24.6972 109.6591 213° Southwest  Level Estimated
Fri 11:40:00 AM 24.5668 109.5646 213° Southwest  Level Estimated
Fri 11:41:00 AM 24.4364 109.4703 213° Southwest  Level Estimated
Fri 11:42:00 AM 24.3059 109.3762 213° Southwest  Level Estimated
Fri 11:43:00 AM 24.1753 109.2823 213° Southwest  Level Estimated
Fri 11:44:00 AM 24.0447 109.1885 213° Southwest  Level Estimated
Fri 11:45:00 AM 23.9140 109.0950 213° Southwest  Level Estimated
Fri 11:46:00 AM 23.7833 109.0016 213° Southwest  Level Estimated
Fri 11:47:00 AM 23.6525 108.9084 213° Southwest  Level Estimated
Fri 11:48:00 AM 23.5217 108.8155 213° Southwest  Level Estimated
Fri 11:49:00 AM 23.3908 108.7227 213° Southwest  Level Estimated
Fri 11:50:00 AM 23.2598 108.6300 213° Southwest  Level Estimated
Fri 11:51:00 AM 23.1288 108.5376 213° Southwest  Level Estimated
Fri 11:52:00 AM 22.9978 108.4454 213° Southwest  Level Estimated
Fri 11:53:00 AM 22.8667 108.3533 213° Southwest  Level Estimated
Fri 11:54:00 AM 22.7355 108.2614 213° Southwest  Level Estimated
Fri 11:55:00 AM 22.6083 108.1724 213° Southwest  Level Estimated
Fri 11:56:00 AM 22.6083 108.1724 148° Southeast  Level Estimated
Fri 11:57:00 AM 22.6083 108.1724 148° Southeast  Level Estimated
Fri 11:58:00 AM 22.6083 108.1724 148° Southeast  Level Estimated
Fri 11:59:00 AM 22.6083 108.1724 148° Southeast  Level Estimated
Fri 12:00:00 PM 22.6083 108.1724 148° Southeast  Level Estimated
Fri 12:01:00 PM 22.6083 108.1724 148° Southeast  Level Estimated
Fri 12:02:00 PM 22.6083 108.1724 148° Southeast  Level Estimated
Fri 12:03:00 PM 22.6083 108.1724 148° Southeast  Level Estimated
Fri 12:04:00 PM 22.6083 108.1724 148° Southeast  Level Estimated
Fri 12:05:00 PM 22.6083 108.1724 148° Southeast  Level Estimated
Fri 12:06:00 PM 22.6083 108.1724 148° Southeast  Level Estimated
Fri 12:07:00 PM 22.6083 108.1724 148° Southeast  Level Estimated

Login

Don't have an account? Register now (free) for customized features, flight alerts, and more!